sensor_id;sensor_type;location;lat;lon;timestamp;P1;durP1;ratioP1;P2;durP2;ratioP2
7887;SDS011;3989;48.810;9.208;2023-04-26T00:40:58;6.77;;;5.30;;
7887;SDS011;3989;48.810;9.208;2023-04-26T00:43:25;7.80;;;5.33;;
7887;SDS011;3989;48.810;9.208;2023-04-26T00:45:51;6.97;;;5.30;;
7887;SDS011;3989;48.810;9.208;2023-04-26T00:48:18;9.73;;;5.53;;
7887;SDS011;3989;48.810;9.208;2023-04-26T00:50:45;7.07;;;5.10;;
7887;SDS011;3989;48.810;9.208;2023-04-26T00:53:13;5.37;;;4.93;;
7887;SDS011;3989;48.810;9.208;2023-04-26T00:55:39;5.70;;;5.20;;
7887;SDS011;3989;48.810;9.208;2023-04-26T00:58:09;6.47;;;5.23;;
7887;SDS011;3989;48.810;9.208;2023-04-26T01:00:36;6.00;;;4.67;;
7887;SDS011;3989;48.810;9.208;2023-04-26T01:03:03;6.20;;;5.60;;
7887;SDS011;3989;48.810;9.208;2023-04-26T01:05:29;5.67;;;5.13;;
7887;SDS011;3989;48.810;9.208;2023-04-26T01:07:56;6.07;;;5.37;;
7887;SDS011;3989;48.810;9.208;2023-04-26T01:10:23;6.97;;;5.77;;
7887;SDS011;3989;48.810;9.208;2023-04-26T01:12:50;7.27;;;5.17;;
7887;SDS011;3989;48.810;9.208;2023-04-26T01:15:19;6.70;;;5.13;;
7887;SDS011;3989;48.810;9.208;2023-04-26T01:17:45;5.50;;;5.00;;
7887;SDS011;3989;48.810;9.208;2023-04-26T01:20:12;6.77;;;5.20;;
7887;SDS011;3989;48.810;9.208;2023-04-26T01:22:40;5.50;;;4.87;;
7887;SDS011;3989;48.810;9.208;2023-04-26T01:25:07;6.00;;;5.50;;
7887;SDS011;3989;48.810;9.208;2023-04-26T01:27:36;9.63;;;5.40;;
7887;SDS011;3989;48.810;9.208;2023-04-26T01:30:04;8.30;;;5.80;;
7887;SDS011;3989;48.810;9.208;2023-04-26T01:32:32;5.87;;;4.93;;
7887;SDS011;3989;48.810;9.208;2023-04-26T01:34:59;5.63;;;4.97;;
7887;SDS011;3989;48.810;9.208;2023-04-26T01:37:25;7.10;;;5.10;;
7887;SDS011;3989;48.810;9.208;2023-04-26T01:39:53;9.83;;;5.37;;
7887;SDS011;3989;48.810;9.208;2023-04-26T01:42:20;5.80;;;5.30;;
7887;SDS011;3989;48.810;9.208;2023-04-26T01:44:46;7.27;;;5.10;;
7887;SDS011;3989;48.810;9.208;2023-04-26T01:47:13;5.73;;;5.23;;
7887;SDS011;3989;48.810;9.208;2023-04-26T01:49:39;5.33;;;4.83;;
7887;SDS011;3989;48.810;9.208;2023-04-26T01:52:06;5.80;;;5.10;;
7887;SDS011;3989;48.810;9.208;2023-04-26T01:54:33;8.00;;;4.87;;
7887;SDS011;3989;48.810;9.208;2023-04-26T01:57:01;5.30;;;4.67;;
7887;SDS011;3989;48.810;9.208;2023-04-26T01:59:27;6.27;;;5.50;;
7887;SDS011;3989;48.810;9.208;2023-04-26T02:01:54;11.20;;;5.90;;
7887;SDS011;3989;48.810;9.208;2023-04-26T02:04:21;5.97;;;4.70;;
7887;SDS011;3989;48.810;9.208;2023-04-26T02:06:48;8.37;;;5.33;;
7887;SDS011;3989;48.810;9.208;2023-04-26T02:09:14;5.03;;;4.47;;
7887;SDS011;3989;48.810;9.208;2023-04-26T02:11:42;5.70;;;5.20;;
7887;SDS011;3989;48.810;9.208;2023-04-26T02:14:10;7.03;;;5.37;;
7887;SDS011;3989;48.810;9.208;2023-04-26T02:16:38;8.83;;;5.70;;
7887;SDS011;3989;48.810;9.208;2023-04-26T02:19:04;7.53;;;5.63;;
7887;SDS011;3989;48.810;9.208;2023-04-26T02:21:48;7.57;;;5.70;;
7887;SDS011;3989;48.810;9.208;2023-04-26T02:24:15;9.27;;;6.27;;
7887;SDS011;3989;48.810;9.208;2023-04-26T02:26:42;6.87;;;6.17;;
7887;SDS011;3989;48.810;9.208;2023-04-26T02:29:10;9.10;;;6.73;;
7887;SDS011;3989;48.810;9.208;2023-04-26T02:31:36;6.93;;;6.00;;
7887;SDS011;3989;48.810;9.208;2023-04-26T02:34:03;9.03;;;6.87;;
7887;SDS011;3989;48.810;9.208;2023-04-26T02:36:30;8.33;;;6.07;;
7887;SDS011;3989;48.810;9.208;2023-04-26T02:38:57;6.97;;;5.97;;
7887;SDS011;3989;48.810;9.208;2023-04-26T02:41:23;6.97;;;6.20;;
7887;SDS011;3989;48.810;9.208;2023-04-26T02:43:50;8.17;;;6.13;;
7887;SDS011;3989;48.810;9.208;2023-04-26T02:46:18;9.10;;;6.70;;
7887;SDS011;3989;48.810;9.208;2023-04-26T02:48:45;9.47;;;6.20;;
7887;SDS011;3989;48.810;9.208;2023-04-26T02:51:11;6.83;;;6.10;;
7887;SDS011;3989;48.810;9.208;2023-04-26T02:53:38;8.20;;;6.73;;
7887;SDS011;3989;48.810;9.208;2023-04-26T02:56:04;11.27;;;6.20;;
7887;SDS011;3989;48.810;9.208;2023-04-26T02:58:31;7.97;;;6.27;;
7887;SDS011;3989;48.810;9.208;2023-04-26T03:00:58;9.90;;;6.77;;
7887;SDS011;3989;48.810;9.208;2023-04-26T03:03:26;9.33;;;7.20;;
7887;SDS011;3989;48.810;9.208;2023-04-26T03:05:52;8.27;;;7.10;;
7887;SDS011;3989;48.810;9.208;2023-04-26T03:08:19;10.13;;;7.50;;
7887;SDS011;3989;48.810;9.208;2023-04-26T03:10:46;8.60;;;7.53;;
7887;SDS011;3989;48.810;9.208;2023-04-26T03:13:12;11.10;;;7.93;;
7887;SDS011;3989;48.810;9.208;2023-04-26T03:15:42;9.67;;;7.93;;
7887;SDS011;3989;48.810;9.208;2023-04-26T03:18:09;10.17;;;7.47;;
7887;SDS011;3989;48.810;9.208;2023-04-26T03:20:37;12.90;;;8.63;;
7887;SDS011;3989;48.810;9.208;2023-04-26T03:23:05;13.70;;;9.40;;
7887;SDS011;3989;48.810;9.208;2023-04-26T03:25:31;12.20;;;9.33;;
7887;SDS011;3989;48.810;9.208;2023-04-26T03:27:58;9.30;;;8.40;;
7887;SDS011;3989;48.810;9.208;2023-04-26T03:30:25;12.63;;;8.53;;
7887;SDS011;3989;48.810;9.208;2023-04-26T03:32:51;11.30;;;8.90;;
7887;SDS011;3989;48.810;9.208;2023-04-26T03:35:18;10.10;;;8.50;;
7887;SDS011;3989;48.810;9.208;2023-04-26T03:37:46;10.53;;;9.13;;
7887;SDS011;3989;48.810;9.208;2023-04-26T03:40:13;17.00;;;10.23;;
7887;SDS011;3989;48.810;9.208;2023-04-26T03:42:41;13.87;;;8.40;;
7887;SDS011;3989;48.810;9.208;2023-04-26T03:45:08;11.30;;;8.40;;
7887;SDS011;3989;48.810;9.208;2023-04-26T03:47:35;12.03;;;9.30;;
7887;SDS011;3989;48.810;9.208;2023-04-26T03:50:02;12.87;;;9.37;;
7887;SDS011;3989;48.810;9.208;2023-04-26T03:52:29;11.47;;;8.93;;
7887;SDS011;3989;48.810;9.208;2023-04-26T03:54:58;12.67;;;8.20;;
7887;SDS011;3989;48.810;9.208;2023-04-26T03:57:24;12.47;;;9.27;;
7887;SDS011;3989;48.810;9.208;2023-04-26T03:59:51;9.80;;;8.67;;
7887;SDS011;3989;48.810;9.208;2023-04-26T04:02:17;12.60;;;9.80;;
7887;SDS011;3989;48.810;9.208;2023-04-26T04:04:44;12.17;;;9.80;;
7887;SDS011;3989;48.810;9.208;2023-04-26T04:07:11;13.73;;;9.63;;
7887;SDS011;3989;48.810;9.208;2023-04-26T04:09:37;14.33;;;10.20;;
7887;SDS011;3989;48.810;9.208;2023-04-26T04:12:05;18.77;;;10.93;;
7887;SDS011;3989;48.810;9.208;2023-04-26T04:14:32;12.57;;;10.50;;
7887;SDS011;3989;48.810;9.208;2023-04-26T04:16:59;14.80;;;10.60;;
7887;SDS011;3989;48.810;9.208;2023-04-26T04:19:25;12.57;;;9.90;;
7887;SDS011;3989;48.810;9.208;2023-04-26T04:21:52;12.57;;;10.20;;
7887;SDS011;3989;48.810;9.208;2023-04-26T04:24:19;15.03;;;10.83;;
7887;SDS011;3989;48.810;9.208;2023-04-26T04:26:45;15.67;;;10.80;;
7887;SDS011;3989;48.810;9.208;2023-04-26T04:29:13;14.30;;;11.17;;
7887;SDS011;3989;48.810;9.208;2023-04-26T04:31:40;18.33;;;12.70;;
7887;SDS011;3989;48.810;9.208;2023-04-26T04:34:07;15.87;;;12.40;;
7887;SDS011;3989;48.810;9.208;2023-04-26T04:36:34;19.60;;;12.20;;
7887;SDS011;3989;48.810;9.208;2023-04-26T04:39:02;18.57;;;12.63;;
7887;SDS011;3989;48.810;9.208;2023-04-26T04:41:30;14.73;;;12.17;;
7887;SDS011;3989;48.810;9.208;2023-04-26T04:43:59;15.43;;;12.50;;
7887;SDS011;3989;48.810;9.208;2023-04-26T04:46:28;17.43;;;12.50;;
7887;SDS011;3989;48.810;9.208;2023-04-26T04:48:55;17.43;;;12.10;;
7887;SDS011;3989;48.810;9.208;2023-04-26T04:51:21;16.37;;;11.97;;
7887;SDS011;3989;48.810;9.208;2023-04-26T04:53:48;18.30;;;12.57;;
7887;SDS011;3989;48.810;9.208;2023-04-26T04:56:15;20.17;;;13.20;;
7887;SDS011;3989;48.810;9.208;2023-04-26T04:58:42;24.57;;;14.07;;
7887;SDS011;3989;48.810;9.208;2023-04-26T05:01:09;20.43;;;13.60;;
7887;SDS011;3989;48.810;9.208;2023-04-26T05:03:37;18.80;;;13.30;;
7887;SDS011;3989;48.810;9.208;2023-04-26T05:06:04;20.10;;;13.93;;
7887;SDS011;3989;48.810;9.208;2023-04-26T05:08:32;23.67;;;15.00;;
7887;SDS011;3989;48.810;9.208;2023-04-26T05:10:58;21.20;;;14.80;;
7887;SDS011;3989;48.810;9.208;2023-04-26T05:13:25;22.03;;;15.33;;
7887;SDS011;3989;48.810;9.208;2023-04-26T05:15:51;23.07;;;16.23;;
7887;SDS011;3989;48.810;9.208;2023-04-26T05:18:18;23.90;;;15.50;;
7887;SDS011;3989;48.810;9.208;2023-04-26T05:20:46;17.73;;;14.47;;
7887;SDS011;3989;48.810;9.208;2023-04-26T05:23:13;17.90;;;13.73;;
7887;SDS011;3989;48.810;9.208;2023-04-26T05:25:39;17.73;;;14.43;;
7887;SDS011;3989;48.810;9.208;2023-04-26T05:28:06;16.53;;;14.07;;
7887;SDS011;3989;48.810;9.208;2023-04-26T05:30:36;19.50;;;13.77;;
7887;SDS011;3989;48.810;9.208;2023-04-26T05:33:04;16.27;;;13.10;;
7887;SDS011;3989;48.810;9.208;2023-04-26T05:35:31;16.30;;;13.13;;
7887;SDS011;3989;48.810;9.208;2023-04-26T05:38:02;15.70;;;12.17;;
7887;SDS011;3989;48.810;9.208;2023-04-26T05:40:30;16.57;;;12.93;;
7887;SDS011;3989;48.810;9.208;2023-04-26T05:43:06;12.20;;;10.97;;
7887;SDS011;3989;48.810;9.208;2023-04-26T05:45:33;12.97;;;10.43;;
7887;SDS011;3989;48.810;9.208;2023-04-26T05:48:00;15.03;;;12.10;;
7887;SDS011;3989;48.810;9.208;2023-04-26T05:50:26;17.20;;;11.00;;
7887;SDS011;3989;48.810;9.208;2023-04-26T05:52:53;13.23;;;10.50;;
7887;SDS011;3989;48.810;9.208;2023-04-26T05:55:22;15.73;;;10.33;;
7887;SDS011;3989;48.810;9.208;2023-04-26T05:57:48;11.00;;;9.87;;
7887;SDS011;3989;48.810;9.208;2023-04-26T06:00:15;12.07;;;10.77;;
7887;SDS011;3989;48.810;9.208;2023-04-26T06:02:44;17.23;;;10.70;;
7887;SDS011;3989;48.810;9.208;2023-04-26T06:05:13;12.20;;;10.67;;
7887;SDS011;3989;48.810;9.208;2023-04-26T06:07:40;13.27;;;9.97;;
7887;SDS011;3989;48.810;9.208;2023-04-26T06:10:06;12.37;;;11.10;;
7887;SDS011;3989;48.810;9.208;2023-04-26T06:12:35;14.63;;;10.07;;
7887;SDS011;3989;48.810;9.208;2023-04-26T06:15:01;13.10;;;10.77;;
7887;SDS011;3989;48.810;9.208;2023-04-26T06:17:28;11.73;;;10.27;;
7887;SDS011;3989;48.810;9.208;2023-04-26T06:19:54;10.23;;;8.77;;
7887;SDS011;3989;48.810;9.208;2023-04-26T06:22:21;9.67;;;8.03;;
7887;SDS011;3989;48.810;9.208;2023-04-26T06:24:47;11.77;;;8.70;;
7887;SDS011;3989;48.810;9.208;2023-04-26T06:27:14;9.33;;;8.43;;
7887;SDS011;3989;48.810;9.208;2023-04-26T06:29:43;11.97;;;9.20;;
7887;SDS011;3989;48.810;9.208;2023-04-26T06:32:10;7.97;;;6.73;;
7887;SDS011;3989;48.810;9.208;2023-04-26T06:34:37;8.27;;;7.20;;
7887;SDS011;3989;48.810;9.208;2023-04-26T06:37:03;11.73;;;6.83;;
7887;SDS011;3989;48.810;9.208;2023-04-26T06:47:15;6.00;;;4.77;;
7887;SDS011;3989;48.810;9.208;2023-04-26T07:49:11;6.87;;;5.10;;
7887;SDS011;3989;48.810;9.208;2023-04-26T07:51:56;5.33;;;4.00;;
7887;SDS011;3989;48.810;9.208;2023-04-26T07:54:26;4.87;;;4.37;;
7887;SDS011;3989;48.810;9.208;2023-04-26T07:56:53;4.73;;;4.33;;
7887;SDS011;3989;48.810;9.208;2023-04-26T07:59:22;4.50;;;4.10;;
7887;SDS011;3989;48.810;9.208;2023-04-26T08:01:55;4.40;;;4.00;;
7887;SDS011;3989;48.810;9.208;2023-04-26T08:04:31;8.77;;;4.27;;
7887;SDS011;3989;48.810;9.208;2023-04-26T08:07:05;9.10;;;4.90;;
7887;SDS011;3989;48.810;9.208;2023-04-26T08:09:36;7.03;;;4.30;;
7887;SDS011;3989;48.810;9.208;2023-04-26T08:12:04;5.97;;;4.47;;
7887;SDS011;3989;48.810;9.208;2023-04-26T08:14:33;6.67;;;4.60;;
7887;SDS011;3989;48.810;9.208;2023-04-26T08:17:01;6.10;;;4.43;;
7887;SDS011;3989;48.810;9.208;2023-04-26T08:22:32;4.30;;;3.90;;
7887;SDS011;3989;48.810;9.208;2023-04-26T08:24:59;4.70;;;4.13;;
7887;SDS011;3989;48.810;9.208;2023-04-26T08:27:28;5.23;;;4.50;;
7887;SDS011;3989;48.810;9.208;2023-04-26T08:29:58;4.87;;;4.40;;
7887;SDS011;3989;48.810;9.208;2023-04-26T08:32:26;5.20;;;4.70;;
7887;SDS011;3989;48.810;9.208;2023-04-26T08:34:53;7.27;;;4.30;;
7887;SDS011;3989;48.810;9.208;2023-04-26T08:37:20;4.87;;;4.17;;
7887;SDS011;3989;48.810;9.208;2023-04-26T08:39:52;4.43;;;4.00;;
7887;SDS011;3989;48.810;9.208;2023-04-26T08:42:19;5.07;;;4.00;;
7887;SDS011;3989;48.810;9.208;2023-04-26T08:44:54;4.93;;;3.80;;
7887;SDS011;3989;48.810;9.208;2023-04-26T08:47:25;5.77;;;4.07;;
7887;SDS011;3989;48.810;9.208;2023-04-26T08:49:55;4.77;;;3.43;;
7887;SDS011;3989;48.810;9.208;2023-04-26T08:52:27;8.00;;;4.27;;
7887;SDS011;3989;48.810;9.208;2023-04-26T08:54:56;4.23;;;3.83;;
7887;SDS011;3989;48.810;9.208;2023-04-26T08:57:23;6.47;;;3.63;;
7887;SDS011;3989;48.810;9.208;2023-04-26T08:59:50;7.33;;;3.87;;
7887;SDS011;3989;48.810;9.208;2023-04-26T09:02:19;6.00;;;3.57;;
7887;SDS011;3989;48.810;9.208;2023-04-26T09:04:47;5.73;;;3.60;;
7887;SDS011;3989;48.810;9.208;2023-04-26T09:07:15;5.67;;;4.10;;
7887;SDS011;3989;48.810;9.208;2023-04-26T09:09:46;6.07;;;4.13;;
7887;SDS011;3989;48.810;9.208;2023-04-26T09:12:16;5.33;;;4.23;;
7887;SDS011;3989;48.810;9.208;2023-04-26T09:14:43;4.27;;;3.87;;
7887;SDS011;3989;48.810;9.208;2023-04-26T09:17:28;6.13;;;3.90;;
7887;SDS011;3989;48.810;9.208;2023-04-26T09:19:56;5.90;;;4.07;;
7887;SDS011;3989;48.810;9.208;2023-04-26T09:22:26;5.40;;;3.63;;
7887;SDS011;3989;48.810;9.208;2023-04-26T09:24:54;5.17;;;3.80;;
7887;SDS011;3989;48.810;9.208;2023-04-26T09:27:22;4.83;;;4.23;;
7887;SDS011;3989;48.810;9.208;2023-04-26T09:29:58;4.73;;;3.77;;
7887;SDS011;3989;48.810;9.208;2023-04-26T09:32:26;3.77;;;3.43;;
7887;SDS011;3989;48.810;9.208;2023-04-26T09:35:11;5.27;;;3.87;;
7887;SDS011;3989;48.810;9.208;2023-04-26T09:37:50;7.23;;;3.57;;
7887;SDS011;3989;48.810;9.208;2023-04-26T09:40:18;5.03;;;4.00;;
7887;SDS011;3989;48.810;9.208;2023-04-26T09:42:47;4.30;;;3.87;;
7887;SDS011;3989;48.810;9.208;2023-04-26T09:45:22;5.70;;;4.20;;
7887;SDS011;3989;48.810;9.208;2023-04-26T09:47:49;7.97;;;3.97;;
7887;SDS011;3989;48.810;9.208;2023-04-26T09:50:24;5.43;;;3.70;;
7887;SDS011;3989;48.810;9.208;2023-04-26T09:52:51;6.70;;;4.00;;
7887;SDS011;3989;48.810;9.208;2023-04-26T09:55:24;4.73;;;4.07;;
7887;SDS011;3989;48.810;9.208;2023-04-26T09:57:53;4.97;;;3.73;;
7887;SDS011;3989;48.810;9.208;2023-04-26T10:00:20;4.77;;;3.37;;
7887;SDS011;3989;48.810;9.208;2023-04-26T10:02:47;5.80;;;3.87;;
7887;SDS011;3989;48.810;9.208;2023-04-26T10:05:14;7.97;;;3.67;;
7887;SDS011;3989;48.810;9.208;2023-04-26T10:07:41;5.33;;;3.50;;
7887;SDS011;3989;48.810;9.208;2023-04-26T10:10:09;4.40;;;3.30;;
7887;SDS011;3989;48.810;9.208;2023-04-26T10:12:36;5.97;;;3.20;;
7887;SDS011;3989;48.810;9.208;2023-04-26T10:15:08;7.27;;;4.17;;
7887;SDS011;3989;48.810;9.208;2023-04-26T10:17:36;6.03;;;3.77;;
7887;SDS011;3989;48.810;9.208;2023-04-26T10:20:03;5.73;;;3.33;;
7887;SDS011;3989;48.810;9.208;2023-04-26T10:22:35;3.73;;;3.43;;
7887;SDS011;3989;48.810;9.208;2023-04-26T10:25:15;5.40;;;3.10;;
7887;SDS011;3989;48.810;9.208;2023-04-26T10:27:48;3.90;;;3.53;;
7887;SDS011;3989;48.810;9.208;2023-04-26T10:30:22;5.53;;;4.13;;
7887;SDS011;3989;48.810;9.208;2023-04-26T10:38:30;4.40;;;3.63;;
7887;SDS011;3989;48.810;9.208;2023-04-26T10:47:10;5.33;;;3.10;;
7887;SDS011;3989;48.810;9.208;2023-04-26T10:49:47;4.17;;;3.00;;
7887;SDS011;3989;48.810;9.208;2023-04-26T10:52:13;5.53;;;2.90;;
7887;SDS011;3989;48.810;9.208;2023-04-26T10:54:47;3.57;;;3.27;;
7887;SDS011;3989;48.810;9.208;2023-04-26T10:57:15;4.33;;;3.30;;
7887;SDS011;3989;48.810;9.208;2023-04-26T11:03:00;3.93;;;3.03;;
7887;SDS011;3989;48.810;9.208;2023-04-26T11:05:32;5.20;;;3.23;;
7887;SDS011;3989;48.810;9.208;2023-04-26T11:08:03;3.43;;;3.13;;
7887;SDS011;3989;48.810;9.208;2023-04-26T11:10:31;4.50;;;3.50;;
7887;SDS011;3989;48.810;9.208;2023-04-26T11:12:58;5.60;;;3.67;;
7887;SDS011;3989;48.810;9.208;2023-04-26T11:15:26;6.07;;;3.60;;
7887;SDS011;3989;48.810;9.208;2023-04-26T11:17:53;3.63;;;3.27;;
7887;SDS011;3989;48.810;9.208;2023-04-26T11:20:21;3.80;;;3.13;;
7887;SDS011;3989;48.810;9.208;2023-04-26T11:22:53;5.10;;;3.10;;
7887;SDS011;3989;48.810;9.208;2023-04-26T11:25:20;4.80;;;3.80;;
7887;SDS011;3989;48.810;9.208;2023-04-26T11:27:46;5.33;;;3.33;;
7887;SDS011;3989;48.810;9.208;2023-04-26T11:30:13;4.03;;;3.23;;
7887;SDS011;3989;48.810;9.208;2023-04-26T11:32:44;4.30;;;3.13;;
7887;SDS011;3989;48.810;9.208;2023-04-26T11:35:11;3.33;;;2.90;;
7887;SDS011;3989;48.810;9.208;2023-04-26T11:37:39;4.10;;;3.73;;
7887;SDS011;3989;48.810;9.208;2023-04-26T11:40:08;4.87;;;3.57;;
7887;SDS011;3989;48.810;9.208;2023-04-26T11:42:36;3.30;;;3.00;;
7887;SDS011;3989;48.810;9.208;2023-04-26T11:45:03;4.57;;;3.40;;
7887;SDS011;3989;48.810;9.208;2023-04-26T11:47:32;3.13;;;2.93;;
7887;SDS011;3989;48.810;9.208;2023-04-26T11:50:00;5.83;;;3.40;;
7887;SDS011;3989;48.810;9.208;2023-04-26T11:52:27;3.23;;;2.93;;
7887;SDS011;3989;48.810;9.208;2023-04-26T11:55:01;3.50;;;3.23;;
7887;SDS011;3989;48.810;9.208;2023-04-26T11:57:30;3.13;;;2.83;;
7887;SDS011;3989;48.810;9.208;2023-04-26T12:00:10;4.78;;;3.40;;
7887;SDS011;3989;48.810;9.208;2023-04-26T12:02:38;4.38;;;3.28;;
7887;SDS011;3989;48.810;9.208;2023-04-26T12:05:08;3.45;;;2.85;;
7887;SDS011;3989;48.810;9.208;2023-04-26T12:07:35;3.38;;;3.08;;
7887;SDS011;3989;48.810;9.208;2023-04-26T12:10:14;3.22;;;2.85;;
7887;SDS011;3989;48.810;9.208;2023-04-26T12:12:42;3.40;;;3.10;;
7887;SDS011;3989;48.810;9.208;2023-04-26T12:15:10;4.68;;;3.20;;
7887;SDS011;3989;48.810;9.208;2023-04-26T12:17:37;6.80;;;3.45;;
7887;SDS011;3989;48.810;9.208;2023-04-26T12:20:08;4.65;;;3.22;;
7887;SDS011;3989;48.810;9.208;2023-04-26T12:22:35;3.00;;;2.80;;
7887;SDS011;3989;48.810;9.208;2023-04-26T12:25:05;4.30;;;2.90;;
7887;SDS011;3989;48.810;9.208;2023-04-26T12:27:35;3.60;;;2.85;;
7887;SDS011;3989;48.810;9.208;2023-04-26T12:30:04;5.78;;;3.63;;
7887;SDS011;3989;48.810;9.208;2023-04-26T12:32:31;3.80;;;2.85;;
7887;SDS011;3989;48.810;9.208;2023-04-26T12:34:58;2.92;;;2.70;;
7887;SDS011;3989;48.810;9.208;2023-04-26T12:37:25;3.20;;;2.90;;
7887;SDS011;3989;48.810;9.208;2023-04-26T12:39:51;3.22;;;2.88;;
7887;SDS011;3989;48.810;9.208;2023-04-26T12:42:18;3.97;;;2.90;;
7887;SDS011;3989;48.810;9.208;2023-04-26T12:44:46;4.03;;;3.35;;
7887;SDS011;3989;48.810;9.208;2023-04-26T12:47:13;3.15;;;2.85;;
7887;SDS011;3989;48.810;9.208;2023-04-26T12:49:39;4.20;;;2.92;;
7887;SDS011;3989;48.810;9.208;2023-04-26T12:52:06;4.07;;;3.53;;
7887;SDS011;3989;48.810;9.208;2023-04-26T12:54:32;2.70;;;2.50;;
7887;SDS011;3989;48.810;9.208;2023-04-26T12:56:59;4.22;;;2.90;;
7887;SDS011;3989;48.810;9.208;2023-04-26T12:59:26;4.35;;;3.00;;
7887;SDS011;3989;48.810;9.208;2023-04-26T13:01:54;5.95;;;2.88;;
7887;SDS011;3989;48.810;9.208;2023-04-26T13:04:21;4.40;;;3.40;;
7887;SDS011;3989;48.810;9.208;2023-04-26T13:06:47;4.05;;;2.92;;
7887;SDS011;3989;48.810;9.208;2023-04-26T13:09:14;4.50;;;3.43;;
7887;SDS011;3989;48.810;9.208;2023-04-26T13:11:41;3.45;;;3.15;;
7887;SDS011;3989;48.810;9.208;2023-04-26T13:14:08;3.65;;;2.90;;
7887;SDS011;3989;48.810;9.208;2023-04-26T13:16:35;5.57;;;3.05;;
7887;SDS011;3989;48.810;9.208;2023-04-26T13:19:07;4.18;;;3.20;;
7887;SDS011;3989;48.810;9.208;2023-04-26T13:21:34;7.05;;;3.25;;
7887;SDS011;3989;48.810;9.208;2023-04-26T13:24:00;3.85;;;3.47;;
7887;SDS011;3989;48.810;9.208;2023-04-26T13:26:27;4.07;;;3.38;;
7887;SDS011;3989;48.810;9.208;2023-04-26T13:28:54;5.57;;;3.25;;
7887;SDS011;3989;48.810;9.208;2023-04-26T13:31:20;5.38;;;3.45;;
7887;SDS011;3989;48.810;9.208;2023-04-26T13:33:48;3.45;;;3.17;;
7887;SDS011;3989;48.810;9.208;2023-04-26T13:36:16;3.67;;;3.10;;
7887;SDS011;3989;48.810;9.208;2023-04-26T13:38:43;3.72;;;3.38;;
7887;SDS011;3989;48.810;9.208;2023-04-26T13:41:10;3.70;;;3.15;;
7887;SDS011;3989;48.810;9.208;2023-04-26T13:43:36;3.40;;;3.13;;
7887;SDS011;3989;48.810;9.208;2023-04-26T13:46:03;3.72;;;3.42;;
7887;SDS011;3989;48.810;9.208;2023-04-26T13:48:30;5.22;;;3.45;;
7887;SDS011;3989;48.810;9.208;2023-04-26T13:50:57;3.78;;;3.42;;
7887;SDS011;3989;48.810;9.208;2023-04-26T13:53:53;3.97;;;3.15;;
7887;SDS011;3989;48.810;9.208;2023-04-26T13:56:20;4.07;;;3.50;;
7887;SDS011;3989;48.810;9.208;2023-04-26T13:58:47;3.60;;;3.30;;
7887;SDS011;3989;48.810;9.208;2023-04-26T14:01:14;3.75;;;3.20;;
7887;SDS011;3989;48.810;9.208;2023-04-26T14:03:40;4.10;;;3.22;;
7887;SDS011;3989;48.810;9.208;2023-04-26T14:06:07;4.63;;;3.50;;
7887;SDS011;3989;48.810;9.208;2023-04-26T14:08:34;4.88;;;3.53;;
7887;SDS011;3989;48.810;9.208;2023-04-26T14:11:02;5.90;;;3.45;;
7887;SDS011;3989;48.810;9.208;2023-04-26T14:13:29;5.03;;;3.55;;
7887;SDS011;3989;48.810;9.208;2023-04-26T14:15:55;3.67;;;3.38;;
7887;SDS011;3989;48.810;9.208;2023-04-26T14:18:22;4.88;;;3.67;;
7887;SDS011;3989;48.810;9.208;2023-04-26T14:20:49;4.22;;;3.03;;
7887;SDS011;3989;48.810;9.208;2023-04-26T14:23:15;6.95;;;3.70;;
7887;SDS011;3989;48.810;9.208;2023-04-26T14:25:42;7.97;;;4.18;;
7887;SDS011;3989;48.810;9.208;2023-04-26T14:28:10;4.53;;;3.33;;
7887;SDS011;3989;48.810;9.208;2023-04-26T14:30:40;6.25;;;3.60;;
7887;SDS011;3989;48.810;9.208;2023-04-26T14:33:06;3.50;;;3.20;;
7887;SDS011;3989;48.810;9.208;2023-04-26T14:35:33;5.05;;;3.25;;
7887;SDS011;3989;48.810;9.208;2023-04-26T14:38:00;4.07;;;3.70;;
7887;SDS011;3989;48.810;9.208;2023-04-26T14:40:26;5.18;;;3.10;;
7887;SDS011;3989;48.810;9.208;2023-04-26T14:42:53;3.42;;;3.13;;
7887;SDS011;3989;48.810;9.208;2023-04-26T14:45:21;3.38;;;3.08;;
7887;SDS011;3989;48.810;9.208;2023-04-26T14:47:48;5.68;;;2.72;;
7887;SDS011;3989;48.810;9.208;2023-04-26T14:50:15;3.20;;;3.00;;
7887;SDS011;3989;48.810;9.208;2023-04-26T14:52:43;3.87;;;3.57;;
7887;SDS011;3989;48.810;9.208;2023-04-26T14:55:10;5.03;;;3.00;;
7887;SDS011;3989;48.810;9.208;2023-04-26T14:57:42;3.70;;;3.40;;
7887;SDS011;3989;48.810;9.208;2023-04-26T15:00:09;3.20;;;3.00;;
7887;SDS011;3989;48.810;9.208;2023-04-26T15:02:40;4.63;;;3.40;;
7887;SDS011;3989;48.810;9.208;2023-04-26T15:05:07;4.13;;;3.43;;
7887;SDS011;3989;48.810;9.208;2023-04-26T15:07:34;3.33;;;3.00;;
7887;SDS011;3989;48.810;9.208;2023-04-26T15:10:01;8.27;;;3.47;;
7887;SDS011;3989;48.810;9.208;2023-04-26T15:12:28;5.83;;;2.97;;
7887;SDS011;3989;48.810;9.208;2023-04-26T15:14:55;3.38;;;3.17;;
7887;SDS011;3989;48.810;9.208;2023-04-26T15:17:22;4.45;;;3.03;;
7887;SDS011;3989;48.810;9.208;2023-04-26T15:19:50;5.45;;;3.10;;
7887;SDS011;3989;48.810;9.208;2023-04-26T15:22:16;4.93;;;2.75;;
7887;SDS011;3989;48.810;9.208;2023-04-26T15:24:43;3.42;;;2.90;;
7887;SDS011;3989;48.810;9.208;2023-04-26T15:27:10;3.47;;;2.95;;
7887;SDS011;3989;48.810;9.208;2023-04-26T15:29:36;3.67;;;2.92;;
7887;SDS011;3989;48.810;9.208;2023-04-26T15:32:03;3.22;;;2.92;;
7887;SDS011;3989;48.810;9.208;2023-04-26T15:34:30;4.47;;;2.40;;
7887;SDS011;3989;48.810;9.208;2023-04-26T15:37:05;4.93;;;2.55;;
7887;SDS011;3989;48.810;9.208;2023-04-26T15:39:32;2.97;;;2.72;;
7887;SDS011;3989;48.810;9.208;2023-04-26T15:41:59;3.17;;;2.88;;
7887;SDS011;3989;48.810;9.208;2023-04-26T15:44:26;3.45;;;2.60;;
7887;SDS011;3989;48.810;9.208;2023-04-26T15:46:53;5.25;;;2.75;;
7887;SDS011;3989;48.810;9.208;2023-04-26T15:49:19;4.13;;;2.70;;
7887;SDS011;3989;48.810;9.208;2023-04-26T15:51:48;2.92;;;2.70;;
7887;SDS011;3989;48.810;9.208;2023-04-26T15:54:16;3.10;;;2.75;;
7887;SDS011;3989;48.810;9.208;2023-04-26T15:56:43;6.00;;;2.67;;
7887;SDS011;3989;48.810;9.208;2023-04-26T15:59:10;2.78;;;2.45;;
7887;SDS011;3989;48.810;9.208;2023-04-26T16:01:37;2.60;;;2.40;;
7887;SDS011;3989;48.810;9.208;2023-04-26T16:04:03;6.32;;;3.03;;
7887;SDS011;3989;48.810;9.208;2023-04-26T16:06:30;4.53;;;2.67;;
7887;SDS011;3989;48.810;9.208;2023-04-26T16:08:57;2.85;;;2.65;;
7887;SDS011;3989;48.810;9.208;2023-04-26T16:11:27;5.68;;;3.00;;
7887;SDS011;3989;48.810;9.208;2023-04-26T16:13:53;3.33;;;3.08;;
7887;SDS011;3989;48.810;9.208;2023-04-26T16:16:20;5.10;;;2.97;;
7887;SDS011;3989;48.810;9.208;2023-04-26T16:18:46;2.97;;;2.50;;
7887;SDS011;3989;48.810;9.208;2023-04-26T16:21:13;2.80;;;2.60;;
7887;SDS011;3989;48.810;9.208;2023-04-26T16:23:40;5.88;;;3.58;;
7887;SDS011;3989;48.810;9.208;2023-04-26T16:26:06;4.75;;;2.65;;
7887;SDS011;3989;48.810;9.208;2023-04-26T16:28:35;3.67;;;2.67;;
7887;SDS011;3989;48.810;9.208;2023-04-26T16:31:01;4.60;;;3.13;;
7887;SDS011;3989;48.810;9.208;2023-04-26T16:33:28;2.47;;;2.37;;
7887;SDS011;3989;48.810;9.208;2023-04-26T16:35:54;5.00;;;2.80;;
7887;SDS011;3989;48.810;9.208;2023-04-26T16:38:21;3.27;;;2.47;;
7887;SDS011;3989;48.810;9.208;2023-04-26T16:40:54;2.87;;;2.30;;
7887;SDS011;3989;48.810;9.208;2023-04-26T16:43:22;3.73;;;2.80;;
7887;SDS011;3989;48.810;9.208;2023-04-26T16:45:56;5.20;;;2.75;;
7887;SDS011;3989;48.810;9.208;2023-04-26T16:48:24;5.53;;;3.13;;
7887;SDS011;3989;48.810;9.208;2023-04-26T16:50:50;3.42;;;2.65;;
7887;SDS011;3989;48.810;9.208;2023-04-26T16:53:17;2.70;;;2.50;;
7887;SDS011;3989;48.810;9.208;2023-04-26T16:55:45;2.50;;;2.30;;
7887;SDS011;3989;48.810;9.208;2023-04-26T16:58:11;5.57;;;2.80;;
7887;SDS011;3989;48.810;9.208;2023-04-26T17:00:38;2.38;;;2.17;;
7887;SDS011;3989;48.810;9.208;2023-04-26T17:03:06;5.03;;;2.40;;
7887;SDS011;3989;48.810;9.208;2023-04-26T17:05:35;3.75;;;2.20;;
7887;SDS011;3989;48.810;9.208;2023-04-26T17:08:03;3.47;;;2.40;;
7887;SDS011;3989;48.810;9.208;2023-04-26T17:10:30;3.87;;;2.17;;
7887;SDS011;3989;48.810;9.208;2023-04-26T17:12:58;2.60;;;2.40;;
7887;SDS011;3989;48.810;9.208;2023-04-26T17:15:25;2.43;;;1.90;;
7887;SDS011;3989;48.810;9.208;2023-04-26T17:17:51;2.87;;;2.30;;
7887;SDS011;3989;48.810;9.208;2023-04-26T17:20:19;4.33;;;2.50;;